Terminal Aerodrome Forecast
Issued by NWS

Home | Current Version | Previous Version | Text Only | Print | Product List | Glossary Off
Versions: 1 2 3 4 5 6 7 8 9 10 11 12 13 14 15 16 17

435
FTUS45 KRIW 282047 AAB
TAFBPI
TAF AMD
KBPI 282047Z 2821/2918 20011KT P6SM SCT035 OVC050
     FM282200 15012KT P6SM BKN050
     FM290200 VRB06KT P6SM BKN060
     FM291500 VRB04KT P6SM SCT070=

USA.gov is the U.S. government's official web portal to all federal, state and local government web resources and services.